Time;durP1;ratioP1;P1;durP2;ratioP2;P2;SDS_P1;SDS_P2;PMS_P1;PMS_P2;Temp;Humidity;BMP_temperature;BMP_pressure;BME280_temperature;BME280_humidity;BME280_pressure;Samples;Min_cycle;Max_cycle;Signal;HPM_P1;HPM_P2
2020/12/26 00:00:21;;;;;;;19.60;4.97;;;;;;;-0.05;100.00;101636.88;5007502;28;20037;-66
2020/12/26 00:02:47;;;;;;;12.40;5.33;;;;;;;-0.10;100.00;101646.03;5001901;28;20087;-64
2020/12/26 00:05:13;;;;;;;12.97;5.13;;;;;;;-0.12;100.00;101640.81;5004710;28;20420;-67
2020/12/26 00:07:38;;;;;;;14.20;4.97;;;;;;;-0.06;100.00;101636.00;5002216;28;20588;-67
2020/12/26 00:10:04;;;;;;;18.43;5.30;;;;;;;-0.05;100.00;101642.03;5004708;28;20021;-66
2020/12/26 00:12:30;;;;;;;27.77;5.50;;;;;;;-0.01;100.00;101626.88;5004149;28;20034;-64
2020/12/26 00:14:55;;;;;;;13.53;4.70;;;;;;;0.07;100.00;101627.31;5003230;28;20285;-66
2020/12/26 00:17:21;;;;;;;16.40;4.90;;;;;;;0.12;100.00;101625.00;4987170;28;20030;-67
2020/12/26 00:19:46;;;;;;;20.03;5.00;;;;;;;0.08;100.00;101623.06;5003402;28;20034;-64
2020/12/26 00:22:12;;;;;;;17.43;5.13;;;;;;;0.03;100.00;101630.53;5010131;28;20041;-64
2020/12/26 00:24:37;;;;;;;13.40;4.83;;;;;;;0.06;100.00;101624.66;5010231;28;20025;-66
2020/12/26 00:27:03;;;;;;;13.80;4.90;;;;;;;0.16;100.00;101614.13;4988525;28;20462;-66
2020/12/26 00:29:28;;;;;;;13.60;4.83;;;;;;;0.19;100.00;101611.72;4985898;28;20045;-66
2020/12/26 00:31:53;;;;;;;13.03;5.13;;;;;;;0.15;100.00;101607.22;4985705;28;20022;-66
2020/12/26 00:34:19;;;;;;;15.13;5.30;;;;;;;0.15;100.00;101610.69;5005364;28;20041;-66
2020/12/26 00:36:45;;;;;;;21.70;4.77;;;;;;;0.17;100.00;101613.34;5001100;28;20026;-67
2020/12/26 00:39:10;;;;;;;12.50;4.63;;;;;;;0.22;100.00;101611.91;5004778;28;20080;-66
2020/12/26 00:41:36;;;;;;;21.23;6.27;;;;;;;0.29;100.00;101607.19;5002427;28;20033;-67
2020/12/26 00:44:01;;;;;;;16.07;5.03;;;;;;;0.33;100.00;101610.84;5002214;28;20053;-66
2020/12/26 00:46:27;;;;;;;12.90;4.63;;;;;;;0.30;100.00;101605.53;5008140;28;20026;-66
2020/12/26 00:48:52;;;;;;;11.43;4.30;;;;;;;0.31;100.00;101612.44;5009626;28;20490;-67
2020/12/26 00:51:17;;;;;;;11.77;4.10;;;;;;;0.34;100.00;101615.19;4992662;28;20067;-67
2020/12/26 00:53:43;;;;;;;15.60;4.40;;;;;;;0.37;100.00;101623.09;5009320;28;20041;-66
2020/12/26 00:56:08;;;;;;;14.87;4.10;;;;;;;0.34;100.00;101615.19;4987915;28;20033;-66
2020/12/26 00:58:34;;;;;;;13.20;3.47;;;;;;;0.44;100.00;101604.63;4989228;28;20021;-66
2020/12/26 01:00:59;;;;;;;10.33;3.83;;;;;;;0.42;100.00;101601.06;5009153;28;20606;-66
2020/12/26 01:03:27;;;;;;;15.80;4.50;;;;;;;0.44;100.00;101604.63;5008245;28;20037;-66
2020/12/26 01:05:52;;;;;;;8.03;3.07;;;;;;;0.48;100.00;101611.69;4987641;28;20559;-66
2020/12/26 01:08:18;;;;;;;12.80;3.80;;;;;;;0.46;100.00;101613.31;5002509;28;20276;-67
2020/12/26 01:10:43;;;;;;;7.37;3.43;;;;;;;0.53;100.00;101605.13;5004021;28;20030;-66
2020/12/26 01:13:09;;;;;;;7.77;3.80;;;;;;;0.52;100.00;101603.38;4999756;28;20473;-66
2020/12/26 01:15:34;;;;;;;10.53;3.80;;;;;;;0.53;100.00;101605.13;5006308;28;20026;-66
2020/12/26 01:18:00;;;;;;;10.40;3.40;;;;;;;0.52;100.00;101613.66;4985932;28;20163;-66
2020/12/26 01:20:25;;;;;;;11.10;3.57;;;;;;;0.53;100.00;101610.28;4989817;28;20044;-65
2020/12/26 01:22:50;;;;;;;9.67;3.43;;;;;;;0.57;100.00;101612.22;5002074;28;20025;-65
2020/12/26 01:25:16;;;;;;;11.93;3.30;;;;;;;0.53;100.00;101607.72;4983921;28;20056;-65
2020/12/26 01:27:41;;;;;;;11.60;3.37;;;;;;;0.51;100.00;101611.91;5008284;28;20041;-66
2020/12/26 01:30:07;;;;;;;9.90;3.67;;;;;;;0.57;100.00;101607.06;4963349;28;20038;-66
2020/12/26 01:32:32;;;;;;;13.50;3.80;;;;;;;0.52;100.00;101607.63;4995733;28;20485;-66
2020/12/26 01:34:59;;;;;;;11.20;3.10;;;;;;;0.58;100.00;101610.53;4967556;28;20158;-65
2020/12/26 01:37:25;;;;;;;16.50;3.20;;;;;;;0.59;100.00;101610.63;4985291;28;20029;-65
2020/12/26 01:39:51;;;;;;;9.80;2.97;;;;;;;0.59;100.00;101610.63;5000541;28;20286;-66
2020/12/26 01:42:16;;;;;;;9.37;3.30;;;;;;;0.55;100.00;101610.38;4998594;28;20285;-66
2020/12/26 01:44:42;;;;;;;7.00;2.73;;;;;;;0.69;100.00;101618.84;5002806;28;20021;-65
2020/12/26 01:47:09;;;;;;;6.60;3.13;;;;;;;0.70;100.00;101628.34;4993181;28;20040;-66
2020/12/26 01:49:35;;;;;;;14.80;3.80;;;;;;;0.71;100.00;101625.84;4985655;28;20025;-66
2020/12/26 01:52:01;;;;;;;13.27;3.47;;;;;;;0.73;100.00;101631.13;4982771;28;20296;-65
2020/12/26 01:54:28;;;;;;;9.47;3.07;;;;;;;0.74;100.00;101625.16;4979542;28;20288;-66
2020/12/26 01:56:53;;;;;;;10.10;3.13;;;;;;;0.78;100.00;101629.69;4965474;28;20285;-66
2020/12/26 01:59:19;;;;;;;11.97;3.40;;;;;;;0.76;100.00;101615.84;4972268;28;20762;-66
2020/12/26 02:01:44;;;;;;;5.67;2.77;;;;;;;0.77;100.00;101612.47;4983933;28;20031;-65
2020/12/26 02:04:11;;;;;;;16.40;3.10;;;;;;;0.82;100.00;101603.28;4978197;28;20045;-66
2020/12/26 02:06:52;;;;;;;7.77;3.30;;;;;;;0.79;100.00;101593.72;4985855;28;20021;-64
2020/12/26 02:09:17;;;;;;;12.50;3.77;;;;;;;0.80;100.00;101607.47;4977283;28;20281;-63
2020/12/26 02:11:43;;;;;;;8.47;2.70;;;;;;;0.79;100.00;101605.72;4973909;28;20288;-64
2020/12/26 02:14:09;;;;;;;13.27;3.07;;;;;;;0.80;100.00;101604.91;4999163;28;20121;-63
2020/12/26 02:16:47;;;;;;;7.37;3.37;;;;;;;0.78;100.00;101615.13;4983999;28;20817;-64
2020/12/26 02:19:14;;;;;;;7.80;2.77;;;;;;;0.83;100.00;101615.34;4988039;28;20017;-64
2020/12/26 02:21:39;;;;;;;15.77;3.00;;;;;;;0.84;100.00;101611.97;4964103;28;20285;-64
2020/12/26 02:24:06;;;;;;;8.90;2.87;;;;;;;0.84;100.00;101609.41;4963500;28;20312;-66
2020/12/26 02:26:31;;;;;;;10.33;3.33;;;;;;;0.84;100.00;101610.28;4959556;28;20034;-66
2020/12/26 02:28:57;;;;;;;9.13;3.10;;;;;;;0.85;100.00;101609.53;4979961;28;20280;-66
2020/12/26 02:31:23;;;;;;;8.20;3.30;;;;;;;0.85;100.00;101608.63;4984081;28;20067;-65
2020/12/26 02:33:48;;;;;;;11.53;3.40;;;;;;;0.80;100.00;101613.50;4968237;28;20052;-66
2020/12/26 02:36:14;;;;;;;10.27;3.23;;;;;;;0.87;100.00;101612.19;5001607;28;20053;-66
2020/12/26 02:38:40;;;;;;;12.70;3.57;;;;;;;0.85;100.00;101606.06;4984570;28;20914;-66
2020/12/26 02:41:06;;;;;;;11.93;3.97;;;;;;;0.85;100.00;101601.78;4998831;28;20053;-66
2020/12/26 02:43:31;;;;;;;14.60;3.23;;;;;;;0.91;100.00;101608.94;5002509;28;20419;-66
2020/12/26 02:45:57;;;;;;;10.17;3.73;;;;;;;0.90;100.00;101596.88;4997952;28;20057;-66
2020/12/26 02:48:22;;;;;;;15.20;3.70;;;;;;;0.94;100.00;101588.50;4981058;28;20083;-66
2020/12/26 02:50:49;;;;;;;13.67;3.73;;;;;;;0.90;100.00;101589.16;4966381;28;20417;-65
2020/12/26 02:53:14;;;;;;;12.40;3.60;;;;;;;0.95;100.00;101590.28;4986128;28;20025;-65
2020/12/26 02:55:40;;;;;;;12.30;3.80;;;;;;;0.97;100.00;101578.41;4981275;28;20285;-66
2020/12/26 02:58:05;;;;;;;8.93;3.43;;;;;;;1.00;100.00;101588.88;4983610;28;20026;-66
2020/12/26 03:00:31;;;;;;;13.60;3.63;;;;;;;0.98;100.00;101580.19;4970954;28;20532;-66
2020/12/26 03:02:57;;;;;;;7.33;3.60;;;;;;;0.97;100.00;101583.56;4985170;28;20030;-66
2020/12/26 03:05:23;;;;;;;9.27;3.80;;;;;;;1.00;100.00;101582.84;4983721;28;20507;-66
2020/12/26 03:07:48;;;;;;;8.77;3.07;;;;;;;1.06;100.00;101573.72;4981046;28;20281;-66
2020/12/26 03:10:14;;;;;;;10.13;3.40;;;;;;;1.06;100.00;101571.16;5001028;28;20056;-66
2020/12/26 03:12:39;;;;;;;4.60;2.57;;;;;;;1.10;100.00;101575.69;4965645;28;20030;-64
2020/12/26 03:15:05;;;;;;;9.13;3.00;;;;;;;1.07;100.00;101580.66;4999372;28;20030;-64
2020/12/26 03:17:31;;;;;;;14.93;3.50;;;;;;;1.06;100.00;101578.00;4965410;28;20029;-64
2020/12/26 03:20:00;;;;;;;7.63;3.00;;;;;;;1.09;100.00;101576.50;4967167;28;20404;-66
2020/12/26 03:22:27;;;;;;;8.90;3.43;;;;;;;1.07;100.00;101575.50;4979807;28;20030;-66
2020/12/26 03:24:53;;;;;;;16.53;3.13;;;;;;;1.15;100.00;101574.22;4982392;28;20291;-66
2020/12/26 03:27:19;;;;;;;9.37;3.13;;;;;;;1.12;100.00;101576.66;4980368;28;20270;-66
2020/12/26 03:29:44;;;;;;;12.23;3.43;;;;;;;1.09;100.00;101573.91;4984306;28;20343;-66
2020/12/26 03:32:10;;;;;;;8.33;3.50;;;;;;;1.05;100.00;101566.81;4997368;28;20037;-64
2020/12/26 03:34:36;;;;;;;8.87;3.10;;;;;;;1.08;100.00;101555.78;4983320;28;20025;-63
2020/12/26 03:37:01;;;;;;;9.23;2.67;;;;;;;1.09;100.00;101563.63;4968384;28;20022;-63
2020/12/26 03:39:27;;;;;;;7.87;3.50;;;;;;;1.05;100.00;101556.50;4998652;28;20393;-64
2020/12/26 03:41:52;;;;;;;12.73;3.73;;;;;;;0.99;100.00;101550.16;4963284;28;20408;-63
2020/12/26 03:44:18;;;;;;;8.80;3.10;;;;;;;0.99;100.00;101545.91;4985102;28;20235;-63
2020/12/26 03:46:43;;;;;;;7.70;3.30;;;;;;;0.98;100.00;101549.28;4984462;28;20044;-63
2020/12/26 03:49:09;;;;;;;8.83;3.10;;;;;;;0.95;100.00;101554.25;4981157;28;20037;-65
2020/12/26 03:51:34;;;;;;;7.47;3.13;;;;;;;0.97;100.00;101547.50;4963603;28;20029;-65
2020/12/26 03:54:00;;;;;;;9.50;3.47;;;;;;;1.00;100.00;101545.09;4986386;28;20026;-65
2020/12/26 03:56:25;;;;;;;7.87;3.23;;;;;;;1.07;100.00;101541.13;5001331;28;20026;-65
2020/12/26 03:58:51;;;;;;;11.03;3.77;;;;;;;1.11;100.00;101531.09;4999951;28;20662;-65
2020/12/26 04:01:16;;;;;;;9.63;3.10;;;;;;;1.09;100.00;101527.56;4998076;28;20030;-63
2020/12/26 04:03:41;;;;;;;11.23;3.60;;;;;;;1.10;100.00;101524.19;5000056;28;20034;-64
2020/12/26 04:06:07;;;;;;;11.77;3.37;;;;;;;1.17;100.00;101522.78;5000891;28;20030;-64
2020/12/26 04:08:32;;;;;;;6.60;3.20;;;;;;;1.13;100.00;101520.88;4963203;28;20517;-64
2020/12/26 04:10:58;;;;;;;11.33;3.20;;;;;;;1.09;100.00;101517.25;5002855;28;20033;-64
2020/12/26 04:13:23;;;;;;;11.57;3.60;;;;;;;1.13;100.00;101501.16;4981595;28;20038;-63
2020/12/26 04:15:48;;;;;;;10.37;3.70;;;;;;;1.15;100.00;101501.22;4980439;28;20029;-63
2020/12/26 04:18:14;;;;;;;7.63;3.80;;;;;;;1.15;100.00;101502.09;4953121;28;20068;-63
2020/12/26 04:20:39;;;;;;;7.10;3.13;;;;;;;1.22;100.00;101505.03;4953433;28;20033;-64
2020/12/26 04:23:05;;;;;;;6.63;3.30;;;;;;;1.22;100.00;101497.28;4983829;28;20037;-63
2020/12/26 04:25:30;;;;;;;7.73;3.07;;;;;;;1.23;100.00;101491.34;4979194;28;20346;-65
2020/12/26 04:27:56;;;;;;;16.93;3.83;;;;;;;1.21;100.00;101495.50;4970313;28;20037;-66
2020/12/26 04:30:22;;;;;;;9.07;3.70;;;;;;;1.26;100.00;101488.91;4966640;28;20431;-66
2020/12/26 04:32:48;;;;;;;8.57;3.57;;;;;;;1.20;100.00;101496.31;5003691;28;20226;-65
2020/12/26 04:35:13;;;;;;;11.43;3.83;;;;;;;1.24;100.00;101493.09;4987144;28;20288;-66
2020/12/26 04:37:39;;;;;;;11.87;3.63;;;;;;;1.25;100.00;101495.75;5006010;28;20034;-64
2020/12/26 04:40:04;;;;;;;11.83;3.80;;;;;;;1.22;100.00;101493.03;5006399;28;20034;-65
2020/12/26 04:42:30;;;;;;;8.70;3.47;;;;;;;1.22;100.00;101492.13;4969469;28;20041;-66
2020/12/26 04:44:57;;;;;;;8.67;3.47;;;;;;;1.26;100.00;101494.06;4985551;28;20034;-65
2020/12/26 04:47:31;;;;;;;6.67;2.90;;;;;;;1.25;100.00;101487.13;4985165;28;20270;-66
2020/12/26 04:50:00;;;;;;;12.50;3.37;;;;;;;1.26;100.00;101479.47;4982251;28;20272;-66
2020/12/26 04:52:29;;;;;;;13.10;3.40;;;;;;;1.29;100.00;101494.22;4986899;28;20296;-65
2020/12/26 04:54:55;;;;;;;9.70;2.70;;;;;;;1.28;100.00;101482.13;4984035;28;20277;-66
2020/12/26 04:57:21;;;;;;;7.80;2.80;;;;;;;1.30;100.00;101481.41;5005382;28;20277;-65
2020/12/26 04:59:47;;;;;;;8.37;2.67;;;;;;;1.34;100.00;101492.78;5006384;28;20640;-66
2020/12/26 05:02:14;;;;;;;4.93;2.10;;;;;;;1.43;100.00;101478.63;4988298;28;20292;-65
2020/12/26 05:04:42;;;;;;;4.53;1.97;;;;;;;1.44;100.00;101484.69;4985693;28;20569;-66
2020/12/26 05:07:07;;;;;;;8.50;2.33;;;;;;;1.37;100.00;101490.34;4970220;28;20279;-65
2020/12/26 05:09:33;;;;;;;5.80;2.33;;;;;;;1.35;100.00;101482.53;5005375;28;20774;-66
2020/12/26 05:12:00;;;;;;;4.67;2.10;;;;;;;1.37;100.00;101480.03;4949481;28;20072;-65
2020/12/26 05:14:28;;;;;;;5.87;2.60;;;;;;;1.38;100.00;101474.06;5005043;28;20030;-66
2020/12/26 05:16:54;;;;;;;8.27;2.43;;;;;;;1.38;100.00;101471.50;4981891;28;20322;-66
2020/12/26 05:19:20;;;;;;;7.53;2.73;;;;;;;1.37;100.00;101459.44;4969582;28;20293;-64
2020/12/26 05:21:47;;;;;;;10.27;2.43;;;;;;;1.33;100.00;101457.47;4954178;28;20288;-66
2020/12/26 05:24:13;;;;;;;6.93;2.30;;;;;;;1.39;100.00;101458.69;4954797;28;20029;-64
2020/12/26 05:26:40;;;;;;;6.77;2.17;;;;;;;1.41;100.00;101458.75;4981841;28;20296;-64
2020/12/26 05:29:06;;;;;;;6.83;2.53;;;;;;;1.36;100.00;101453.38;4983794;28;20277;-64
2020/12/26 05:31:42;;;;;;;7.50;2.43;;;;;;;1.32;100.00;101458.28;5002263;28;20260;-64
2020/12/26 05:34:08;;;;;;;7.23;2.33;;;;;;;1.37;100.00;101462.00;4965825;28;20957;-65
2020/12/26 05:36:34;;;;;;;6.57;2.17;;;;;;;1.32;100.00;101448.88;4985971;28;20276;-66
2020/12/26 05:38:59;;;;;;;5.40;1.93;;;;;;;1.24;100.00;101449.31;4965910;28;20033;-65
2020/12/26 05:41:25;;;;;;;4.40;2.00;;;;;;;1.18;100.00;101457.59;5000084;28;20040;-63
2020/12/26 05:43:51;;;;;;;4.57;2.30;;;;;;;1.22;100.00;101458.66;4982586;28;20042;-63
2020/12/26 05:46:17;;;;;;;7.87;2.10;;;;;;;1.15;100.00;101445.44;4981842;28;20113;-64
2020/12/26 05:48:42;;;;;;;7.87;2.10;;;;;;;1.16;100.00;101451.47;4981422;28;20280;-64
2020/12/26 05:51:08;;;;;;;9.80;2.70;;;;;;;1.18;100.00;101455.00;4985545;28;20022;-65
2020/12/26 05:53:35;;;;;;;4.70;1.97;;;;;;;1.23;100.00;101455.28;5006096;28;20087;-65
2020/12/26 05:56:00;;;;;;;3.87;1.77;;;;;;;1.24;100.00;101454.47;4984212;28;20030;-66
2020/12/26 05:58:27;;;;;;;5.40;2.20;;;;;;;1.25;100.00;101445.91;4982653;28;20328;-63
2020/12/26 06:00:59;;;;;;;4.97;1.87;;;;;;;1.27;100.00;101446.88;4982927;28;20092;-63
2020/12/26 06:03:36;;;;;;;6.80;2.72;;;;;;;1.32;100.00;101447.97;4999127;28;20320;-63
2020/12/26 06:06:04;;;;;;;6.27;2.60;;;;;;;1.35;100.00;101450.75;4972054;28;20622;-66
2020/12/26 06:08:30;;;;;;;5.07;2.40;;;;;;;1.40;100.00;101451.84;4971324;28;20273;-65
2020/12/26 06:11:01;;;;;;;8.53;2.90;;;;;;;1.35;100.00;101453.31;4988010;28;20265;-66
2020/12/26 06:13:28;;;;;;;5.67;2.77;;;;;;;1.41;100.00;101453.59;5004220;28;20279;-65
2020/12/26 06:16:10;;;;;;;7.07;2.83;;;;;;;1.42;100.00;101455.38;4964461;28;20273;-65
2020/12/26 06:18:41;;;;;;;4.53;2.25;;;;;;;1.33;100.00;101445.50;4972975;28;20660;-65
2020/12/26 06:21:08;;;;;;;7.57;3.10;;;;;;;1.32;100.00;101453.13;5004112;28;20040;-65
2020/12/26 06:23:38;;;;;;;3.50;1.60;;;;;;;1.28;100.00;101446.94;4986764;28;20280;-65
2020/12/26 06:26:03;;;;;;;5.87;3.07;;;;;;;1.20;100.00;101447.34;4972575;28;20640;-65
2020/12/26 06:28:31;;;;;;;5.33;2.43;;;;;;;1.21;100.00;101454.28;4969657;28;20269;-65
2020/12/26 06:31:05;;;;;;;9.40;3.10;;;;;;;1.16;100.00;101456.63;5000675;28;20057;-65
2020/12/26 06:33:44;;;;;;;9.60;3.40;;;;;;;1.10;100.00;101446.91;4986356;28;20338;-66
2020/12/26 06:36:11;;;;;;;11.97;3.23;;;;;;;1.18;100.00;101450.75;4981876;28;20601;-65
2020/12/26 06:38:38;;;;;;;8.20;2.87;;;;;;;1.16;100.00;101436.91;4983620;28;20280;-65
2020/12/26 06:41:03;;;;;;;7.90;3.07;;;;;;;1.15;100.00;101450.59;4981221;28;20340;-66
2020/12/26 06:43:47;;;;;;;12.47;3.60;;;;;;;1.18;100.00;101445.59;5005086;28;20280;-65
2020/12/26 06:46:13;;;;;;;9.30;3.20;;;;;;;1.18;100.00;101437.88;4984233;28;20375;-65
2020/12/26 06:48:38;;;;;;;11.93;3.63;;;;;;;1.18;100.00;101435.28;4980329;28;20289;-65
2020/12/26 06:51:30;;;;;;;10.30;3.17;;;;;;;1.23;100.00;101447.53;4979473;28;20452;-65
2020/12/26 06:53:57;;;;;;;5.67;2.90;;;;;;;1.15;100.00;101444.56;4981482;28;20037;-66
2020/12/26 06:56:32;;;;;;;7.27;3.27;;;;;;;1.10;100.00;101434.03;4982606;28;20778;-65
2020/12/26 06:58:59;;;;;;;6.57;3.20;;;;;;;1.06;100.00;101442.38;5003870;28;20281;-65
2020/12/26 07:01:25;;;;;;;8.57;3.40;;;;;;;1.04;100.00;101451.72;4970127;28;20293;-65
2020/12/26 07:04:13;;;;;;;12.47;3.33;;;;;;;1.27;100.00;101452.91;5001358;28;20281;-65
2020/12/26 07:06:46;;;;;;;7.73;2.93;;;;;;;1.39;100.00;101455.22;4984803;28;20269;-65
2020/12/26 07:09:13;;;;;;;7.57;3.30;;;;;;;1.36;100.00;101449.94;4982168;28;20352;-65
2020/12/26 07:11:52;;;;;;;7.83;2.80;;;;;;;1.39;100.00;101452.66;4951849;28;20747;-65
2020/12/26 07:14:36;;;;;;;9.00;3.60;;;;;;;1.39;100.00;101461.25;4979699;28;20308;-66
2020/12/26 07:17:14;;;;;;;6.23;3.40;;;;;;;1.44;100.00;101453.75;4983567;28;20367;-66
2020/12/26 07:19:51;;;;;;;8.80;3.47;;;;;;;1.49;100.00;101462.63;4985926;28;20279;-65
2020/12/26 07:22:30;;;;;;;11.90;4.17;;;;;;;1.45;100.00;101465.81;4984084;28;20312;-66
2020/12/26 07:25:01;;;;;;;10.47;3.80;;;;;;;1.43;100.00;101458.03;4985636;28;20285;-65
2020/12/26 07:27:30;;;;;;;10.03;3.67;;;;;;;1.40;100.00;101447.56;5001973;28;20280;-65
2020/12/26 07:29:59;;;;;;;12.20;4.17;;;;;;;1.38;100.00;101443.16;4979290;28;20277;-66
2020/12/26 07:35:07;;;;;;;11.03;4.13;;;;;;;1.40;100.00;101451.84;5005366;28;20729;-66
2020/12/26 07:37:33;;;;;;;7.83;4.07;;;;;;;1.33;100.00;101460.06;5001529;28;21504;-66
2020/12/26 07:39:59;;;;;;;10.83;4.50;;;;;;;1.26;100.00;101455.41;4949478;28;20651;-65
2020/12/26 07:42:25;;;;;;;10.77;4.20;;;;;;;1.30;100.00;101454.75;5001770;28;20548;-65
2020/12/26 07:44:51;;;;;;;13.83;4.80;;;;;;;1.28;100.00;101451.22;4985707;28;20390;-66
2020/12/26 07:47:17;;;;;;;8.43;3.43;;;;;;;1.38;100.00;101449.19;5002788;28;20272;-65
2020/12/26 07:49:42;;;;;;;11.73;5.30;;;;;;;1.41;100.00;101445.88;4971801;28;20291;-66
2020/12/26 07:52:09;;;;;;;7.67;3.73;;;;;;;1.38;100.00;101459.50;4982319;28;20037;-65
2020/12/26 07:54:35;;;;;;;14.47;4.53;;;;;;;1.41;100.00;101463.91;4983945;28;20084;-65
2020/12/26 07:57:01;;;;;;;12.57;5.00;;;;;;;1.45;100.00;101464.16;4981855;28;20687;-66
2020/12/26 07:59:27;;;;;;;11.30;4.47;;;;;;;1.54;100.00;101466.31;4964238;28;20268;-66
2020/12/26 08:01:54;;;;;;;8.97;4.13;;;;;;;1.63;100.00;101464.19;4946423;28;20088;-66
2020/12/26 08:04:20;;;;;;;11.87;4.17;;;;;;;1.66;100.00;101466.03;4983750;28;20051;-66
2020/12/26 08:06:48;;;;;;;10.70;4.83;;;;;;;1.75;100.00;101457.06;4952532;28;20288;-66
2020/12/26 08:09:15;;;;;;;9.57;4.57;;;;;;;1.81;100.00;101455.56;4987263;28;20481;-65
2020/12/26 08:11:42;;;;;;;10.07;4.63;;;;;;;1.82;100.00;101447.03;4966788;28;20277;-66
2020/12/26 08:14:08;;;;;;;11.67;4.97;;;;;;;1.88;100.00;101447.34;4982145;28;20300;-65
2020/12/26 08:16:35;;;;;;;10.43;3.67;;;;;;;1.94;100.00;101442.47;4999908;28;20281;-65
2020/12/26 08:19:02;;;;;;;10.00;4.17;;;;;;;1.94;100.00;101440.81;5007267;28;20273;-66
2020/12/26 08:21:29;;;;;;;10.37;3.70;;;;;;;2.00;100.00;101437.63;4966740;28;20289;-65
2020/12/26 08:23:59;;;;;;;10.40;4.57;;;;;;;2.04;100.00;101434.38;4983486;28;20295;-66
2020/12/26 08:26:29;;;;;;;8.10;3.87;;;;;;;2.08;100.00;101441.47;4983429;28;20284;-66
2020/12/26 08:29:00;;;;;;;10.63;4.43;;;;;;;2.08;100.00;101440.56;5003321;28;20814;-66
2020/12/26 08:31:27;;;;;;;8.73;4.30;;;;;;;2.12;100.00;101433.03;4993148;28;20258;-66
2020/12/26 08:34:10;;;;;;;14.93;4.50;;;;;;;2.13;100.00;101431.34;4984439;28;20269;-66
2020/12/26 08:36:44;;;;;;;7.22;3.38;;;;;;;2.15;100.00;101442.63;4972878;28;20276;-66
2020/12/26 08:39:09;;;;;;;9.57;3.97;;;;;;;2.17;100.00;101444.44;4987603;28;20034;-65
2020/12/26 08:41:40;;;;;;;11.20;4.50;;;;;;;2.18;100.00;101438.50;4989031;28;20300;-66
2020/12/26 08:44:13;;;;;;;11.67;4.60;;;;;;;2.18;100.00;101435.94;4988271;28;20038;-65
2020/12/26 08:46:43;;;;;;;11.80;4.55;;;;;;;2.18;100.00;101433.34;4999221;28;20284;-65
2020/12/26 08:49:09;;;;;;;9.63;4.53;;;;;;;2.22;100.00;101432.66;4983040;28;20041;-65
2020/12/26 08:51:45;;;;;;;11.13;4.60;;;;;;;2.23;100.00;101431.84;4998826;28;20648;-66
2020/12/26 08:54:22;;;;;;;8.90;3.93;;;;;;;2.31;100.00;101429.63;5000735;28;20548;-66
2020/12/26 08:56:48;;;;;;;13.67;5.03;;;;;;;2.37;100.00;101426.44;4999595;28;20284;-65
2020/12/26 08:59:13;;;;;;;9.77;4.33;;;;;;;2.35;100.00;101416.06;4987782;28;20273;-65
2020/12/26 09:01:40;;;;;;;11.37;6.23;;;;;;;2.38;100.00;101420.47;4983306;28;20117;-65
2020/12/26 09:04:15;;;;;;;12.13;4.70;;;;;;;2.40;100.00;101429.16;4981100;28;20038;-65
2020/12/26 09:06:42;;;;;;;11.83;4.00;;;;;;;2.41;100.00;101424.06;5000437;28;20760;-65
2020/12/26 09:09:18;;;;;;;9.40;4.10;;;;;;;2.48;100.00;101433.00;4988265;28;20304;-65
2020/12/26 09:11:45;;;;;;;7.43;4.13;;;;;;;2.52;100.00;101424.56;4999395;28;20305;-66
2020/12/26 09:14:21;;;;;;;8.40;3.90;;;;;;;2.57;100.00;101423.09;4986099;28;20273;-65
2020/12/26 09:16:55;;;;;;;13.17;5.70;;;;;;;2.57;100.00;101428.25;4999155;28;20748;-65
2020/12/26 09:19:20;;;;;;;12.73;5.30;;;;;;;2.59;100.00;101431.78;4989170;28;20281;-66
2020/12/26 09:21:46;;;;;;;7.43;3.20;;;;;;;2.64;100.00;101420.81;4977567;28;20660;-66
2020/12/26 09:24:21;;;;;;;11.00;4.87;;;;;;;2.57;100.00;101417.94;4977094;28;20033;-66
2020/12/26 09:26:48;;;;;;;8.43;4.17;;;;;;;2.57;100.00;101412.75;4962791;28;20399;-66
2020/12/26 09:29:24;;;;;;;13.00;5.20;;;;;;;2.57;100.00;101410.19;5012215;28;20280;-66
2020/12/26 09:31:50;;;;;;;11.80;4.57;;;;;;;2.60;100.00;101407.72;4995080;28;20261;-66
2020/12/26 09:34:23;;;;;;;8.00;3.70;;;;;;;2.66;100.00;101413.16;5010747;28;20775;-63
2020/12/26 09:37:10;;;;;;;10.23;4.68;;;;;;;2.72;100.00;101403.13;4977563;28;20752;-63
2020/12/26 09:39:37;;;;;;;8.00;3.80;;;;;;;2.77;100.00;101408.47;4975885;28;20038;-63
2020/12/26 09:42:03;;;;;;;9.63;4.37;;;;;;;2.79;100.00;101393.94;4990644;28;20285;-64
2020/12/26 09:44:28;;;;;;;10.20;5.17;;;;;;;2.80;100.00;101395.72;4959718;28;20320;-64
2020/12/26 09:46:58;;;;;;;12.80;5.13;;;;;;;2.84;100.00;101390.75;4977154;28;20595;-63
2020/12/26 09:49:24;;;;;;;8.00;4.40;;;;;;;2.82;100.00;101384.63;4993988;28;20057;-63
2020/12/26 09:51:50;;;;;;;12.83;5.13;;;;;;;2.80;100.00;101386.28;5010860;28;20656;-63
2020/12/26 09:54:15;;;;;;;11.30;5.43;;;;;;;2.77;100.00;101388.69;4977866;28;20076;-63
2020/12/26 09:56:41;;;;;;;10.43;4.83;;;;;;;2.76;100.00;101389.50;4976517;28;20037;-63
2020/12/26 09:59:06;;;;;;;13.23;4.67;;;;;;;2.78;100.00;101390.44;5011243;28;20728;-63
2020/12/26 10:01:34;;;;;;;7.93;4.07;;;;;;;2.79;100.00;101386.19;4994295;28;20030;-66
2020/12/26 10:04:00;;;;;;;10.07;5.10;;;;;;;2.81;100.00;101382.88;5010841;28;20026;-66
2020/12/26 10:06:25;;;;;;;8.07;3.30;;;;;;;2.89;100.00;101386.66;4977729;28;20277;-66
2020/12/26 10:08:51;;;;;;;13.43;5.60;;;;;;;2.93;100.00;101379.94;4977056;28;20233;-66
2020/12/26 10:11:18;;;;;;;11.07;5.30;;;;;;;3.04;100.00;101367.47;4993649;28;20026;-66
2020/12/26 10:13:45;;;;;;;10.57;4.33;;;;;;;3.05;100.00;101366.66;4975934;28;20044;-66
2020/12/26 10:16:11;;;;;;;11.60;6.07;;;;;;;3.11;100.00;101372.94;5010719;28;20359;-66
2020/12/26 10:18:37;;;;;;;8.30;4.10;;;;;;;3.16;100.00;101362.81;5008314;28;20285;-66
2020/12/26 10:21:03;;;;;;;10.17;4.73;;;;;;;3.20;100.00;101362.13;4958549;28;20288;-66
2020/12/26 10:23:28;;;;;;;8.83;4.83;;;;;;;3.24;100.00;101353.69;4960169;28;20073;-66
2020/12/26 10:25:54;;;;;;;10.47;5.53;;;;;;;3.26;100.00;101345.97;4989002;28;20573;-66
2020/12/26 10:28:20;;;;;;;5.33;2.67;;;;;;;3.29;100.00;101351.31;4996682;28;20029;-66
2020/12/26 10:30:48;;;;;;;9.60;5.07;;;;;;;3.28;100.00;101347.84;4993567;28;20037;-66
2020/12/26 10:33:14;;;;;;;10.63;4.73;;;;;;;3.33;100.00;101333.38;4986867;28;20034;-66
2020/12/26 10:35:40;;;;;;;8.37;4.53;;;;;;;3.33;100.00;101337.66;4983279;28;20341;-66
2020/12/26 10:38:06;;;;;;;7.73;4.23;;;;;;;3.44;100.00;101332.13;4983804;28;20430;-66
2020/12/26 10:40:32;;;;;;;10.47;4.80;;;;;;;3.45;100.00;101326.13;4992913;28;20292;-66
2020/12/26 10:42:57;;;;;;;12.20;5.73;;;;;;;3.50;100.00;101318.53;4984770;28;20029;-66
2020/12/26 10:45:23;;;;;;;11.53;5.80;;;;;;;3.57;100.00;101306.75;4992753;28;20029;-67
2020/12/26 10:47:48;;;;;;;11.43;5.07;;;;;;;3.69;100.00;101312.41;5007872;28;20113;-66
2020/12/26 10:50:14;;;;;;;10.57;5.13;;;;;;;3.75;100.00;101315.22;4966802;28;20038;-66
2020/12/26 10:52:39;;;;;;;10.67;5.50;;;;;;;3.75;100.00;101310.03;4991975;28;20030;-65
2020/12/26 10:55:05;;;;;;;11.03;5.20;;;;;;;3.72;100.00;101302.16;4997342;28;20043;-66
2020/12/26 10:57:30;;;;;;;11.33;5.73;;;;;;;3.68;100.00;101300.28;4998097;28;20030;-66
2020/12/26 10:59:56;;;;;;;10.20;4.97;;;;;;;3.64;100.00;101290.66;5010862;28;20030;-66
2020/12/26 11:02:21;;;;;;;12.13;5.53;;;;;;;3.59;100.00;101268.91;5004126;28;20113;-66
2020/12/26 11:04:47;;;;;;;10.23;5.33;;;;;;;3.53;100.00;101270.44;4980535;28;20037;-65
2020/12/26 11:07:12;;;;;;;13.63;5.20;;;;;;;3.50;100.00;101278.06;4994431;28;20030;-66
2020/12/26 11:09:37;;;;;;;11.50;6.00;;;;;;;3.51;100.00;101266.91;4989798;28;20091;-66
2020/12/26 11:12:03;;;;;;;9.43;4.90;;;;;;;3.57;100.00;101271.44;4968135;28;20040;-66
2020/12/26 11:14:29;;;;;;;10.87;5.23;;;;;;;3.76;100.00;101267.88;4991882;28;20026;-66
2020/12/26 11:16:54;;;;;;;13.53;5.83;;;;;;;3.95;100.00;101259.94;4992559;28;20042;-66
2020/12/26 11:19:20;;;;;;;12.13;4.97;;;;;;;3.93;100.00;101256.44;4984743;28;20030;-66
2020/12/26 11:21:54;;;;;;;13.83;6.87;;;;;;;4.01;100.00;101261.91;4975408;28;20030;-66
2020/12/26 11:24:20;;;;;;;10.93;5.17;;;;;;;4.03;100.00;101243.00;4970219;28;20034;-66